Time;durP1;ratioP1;P1;durP2;ratioP2;P2;SDS_P1;SDS_P2;PMS_P1;PMS_P2;Temp;Humidity;BMP_temperature;BMP_pressure;BME280_temperature;BME280_humidity;BME280_pressure;Samples;Min_cycle;Max_cycle;Signal;HPM_P1;HPM_P2
2021/05/22 00:01:06;;;;;;;;;;;28.70;88.50;;;;;;5066086;28;19913;-55
2021/05/22 00:03:32;;;;;;;;;;;28.60;88.60;;;;;;5066027;28;19905;-52
2021/05/22 00:05:58;;;;;;;;;;;28.60;88.70;;;;;;5048186;28;19913;-53
2021/05/22 00:08:24;;;;;;;;;;;28.60;88.90;;;;;;5065094;28;20204;-52
2021/05/22 00:10:50;;;;;;;;;;;28.60;88.80;;;;;;5047665;28;19948;-51
2021/05/22 00:13:17;;;;;;;;;;;28.60;88.80;;;;;;5065260;28;19909;-54
2021/05/22 00:15:44;;;;;;;;;;;28.60;89.30;;;;;;5065694;28;19964;-54
2021/05/22 00:18:10;;;;;;;;;;;28.50;89.00;;;;;;5047814;28;19917;-53
2021/05/22 00:20:37;;;;;;;;;;;28.50;88.80;;;;;;5065602;28;20077;-50
2021/05/22 00:23:03;;;;;;;;;;;28.50;88.90;;;;;;5065544;28;19917;-53
2021/05/22 00:25:29;;;;;;;;;;;28.50;89.20;;;;;;5065604;28;19984;-53
2021/05/22 00:27:56;;;;;;;;;;;28.50;89.30;;;;;;5064276;28;19913;-55
2021/05/22 00:30:22;;;;;;;;;;;28.50;89.10;;;;;;5073013;28;19911;-54
2021/05/22 00:32:48;;;;;;;;;;;28.50;89.00;;;;;;5047025;28;19925;-53
2021/05/22 00:35:14;;;;;;;;;;;28.50;89.20;;;;;;5065240;28;19905;-53
2021/05/22 00:37:40;;;;;;;;;;;28.50;89.20;;;;;;5065396;28;19920;-53
2021/05/22 00:40:07;;;;;;;;;;;28.50;89.00;;;;;;5072480;28;19931;-53
2021/05/22 00:42:37;;;;;;;;;;;28.50;89.30;;;;;;5065348;28;19971;-56
2021/05/22 00:45:17;;;;;;;;;;;28.40;89.20;;;;;;5065117;28;19912;-53
2021/05/22 00:47:54;;;;;;;;;;;28.40;89.30;;;;;;5064320;28;19959;-54
2021/05/22 00:50:27;;;;;;;;;;;28.30;89.20;;;;;;5064875;28;19905;-51
2021/05/22 00:52:53;;;;;;;;;;;28.30;89.20;;;;;;5065188;28;20239;-53
2021/05/22 00:55:20;;;;;;;;;;;28.30;89.30;;;;;;5047229;28;19927;-56
2021/05/22 00:57:46;;;;;;;;;;;28.30;89.30;;;;;;5064900;28;19912;-52
2021/05/22 01:00:32;;;;;;;;;;;28.30;89.50;;;;;;5064915;28;19904;-53
2021/05/22 01:02:58;;;;;;;;;;;28.20;89.10;;;;;;5053943;28;19913;-53
2021/05/22 01:05:26;;;;;;;;;;;28.20;89.20;;;;;;5064535;28;19909;-53
2021/05/22 01:07:53;;;;;;;;;;;28.20;89.30;;;;;;5046728;28;19936;-54
2021/05/22 01:10:19;;;;;;;;;;;28.20;89.50;;;;;;5064666;28;19912;-51
2021/05/22 01:12:48;;;;;;;;;;;28.20;89.10;;;;;;5064736;28;19958;-53
2021/05/22 01:15:16;;;;;;;;;;;28.20;89.20;;;;;;5064496;28;20209;-54
2021/05/22 01:17:46;;;;;;;;;;;28.10;88.90;;;;;;5065155;28;19913;-52
2021/05/22 01:20:12;;;;;;;;;;;28.10;88.90;;;;;;5064584;28;20153;-53
2021/05/22 01:22:44;;;;;;;;;;;28.10;89.40;;;;;;5065128;28;19948;-56
2021/05/22 01:25:19;;;;;;;;;;;28.10;89.30;;;;;;5064370;28;20189;-54
2021/05/22 01:27:47;;;;;;;;;;;28.00;89.20;;;;;;5070718;28;19955;-53
2021/05/22 01:30:14;;;;;;;;;;;27.90;89.20;;;;;;5064185;28;20106;-53
2021/05/22 01:32:40;;;;;;;;;;;27.90;89.10;;;;;;5046553;28;19940;-53
2021/05/22 01:35:10;;;;;;;;;;;27.90;89.00;;;;;;5064179;28;19976;-52
2021/05/22 01:37:36;;;;;;;;;;;28.00;88.90;;;;;;5064544;28;20019;-52
2021/05/22 01:40:03;;;;;;;;;;;28.00;89.00;;;;;;5046623;28;20153;-54
2021/05/22 01:42:30;;;;;;;;;;;28.00;88.90;;;;;;5063955;28;19916;-52
2021/05/22 01:44:57;;;;;;;;;;;27.90;88.60;;;;;;5064274;28;19936;-56
2021/05/22 01:47:25;;;;;;;;;;;27.90;88.40;;;;;;5046460;28;19971;-54
2021/05/22 01:49:51;;;;;;;;;;;27.90;89.30;;;;;;5074567;28;19946;-54
2021/05/22 01:52:18;;;;;;;;;;;27.90;88.70;;;;;;5072861;28;19921;-53
2021/05/22 01:54:47;;;;;;;;;;;27.80;88.50;;;;;;5063512;28;19920;-54
2021/05/22 01:57:16;;;;;;;;;;;27.80;88.80;;;;;;5066726;28;20307;-54
2021/05/22 01:59:42;;;;;;;;;;;27.80;88.80;;;;;;5065932;28;19919;-54
2021/05/22 02:02:08;;;;;;;;;;;27.80;88.40;;;;;;5068219;28;19913;-55
2021/05/22 02:04:36;;;;;;;;;;;27.80;88.60;;;;;;5068205;28;19905;-52
2021/05/22 02:07:04;;;;;;;;;;;27.80;88.00;;;;;;5068157;28;20093;-57
2021/05/22 02:09:31;;;;;;;;;;;27.80;88.00;;;;;;5068316;28;19912;-55
2021/05/22 02:11:57;;;;;;;;;;;27.80;88.10;;;;;;5077400;28;19916;-57
2021/05/22 02:14:30;;;;;;;;;;;27.80;88.50;;;;;;5072329;28;20169;-57
2021/05/22 02:16:56;;;;;;;;;;;27.70;88.50;;;;;;5067957;28;19912;-48
2021/05/22 02:19:26;;;;;;;;;;;27.80;88.40;;;;;;5051835;28;20216;-47
2021/05/22 02:21:53;;;;;;;;;;;27.90;88.20;;;;;;5075070;28;19913;-55
2021/05/22 02:24:24;;;;;;;;;;;28.00;88.40;;;;;;5070350;28;19947;-54
2021/05/22 02:26:52;;;;;;;;;;;28.00;88.10;;;;;;5077888;28;20105;-53
2021/05/22 02:29:19;;;;;;;;;;;28.00;88.00;;;;;;5066574;28;19926;-54
2021/05/22 02:31:47;;;;;;;;;;;28.00;87.80;;;;;;5082166;28;19925;-51
2021/05/22 02:34:13;;;;;;;;;;;28.00;87.60;;;;;;5088246;28;20218;-55
2021/05/22 02:36:40;;;;;;;;;;;28.00;87.40;;;;;;5080677;28;19919;-50
2021/05/22 02:39:08;;;;;;;;;;;28.00;87.40;;;;;;5067345;28;19905;-51
2021/05/22 02:41:35;;;;;;;;;;;28.00;87.30;;;;;;5067770;28;20132;-50
2021/05/22 02:44:02;;;;;;;;;;;28.00;87.00;;;;;;5067194;28;19917;-57
2021/05/22 02:46:31;;;;;;;;;;;28.00;87.00;;;;;;5067260;28;20189;-59
2021/05/22 02:48:58;;;;;;;;;;;28.00;87.40;;;;;;5068902;28;19905;-58
2021/05/22 02:51:25;;;;;;;;;;;28.00;87.60;;;;;;5082160;28;20210;-54
2021/05/22 02:53:52;;;;;;;;;;;28.00;87.50;;;;;;5051893;28;19909;-59
2021/05/22 02:56:19;;;;;;;;;;;28.00;87.40;;;;;;5066838;28;19959;-57
2021/05/22 02:58:46;;;;;;;;;;;28.00;87.30;;;;;;5070573;28;19931;-49
2021/05/22 03:01:13;;;;;;;;;;;28.00;87.00;;;;;;5067968;28;19913;-56
2021/05/22 03:03:39;;;;;;;;;;;28.00;87.10;;;;;;5067457;28;20101;-54
2021/05/22 03:06:06;;;;;;;;;;;28.00;86.90;;;;;;5067190;28;19913;-54
2021/05/22 03:08:45;;;;;;;;;;;28.00;87.00;;;;;;5067395;28;19975;-59
2021/05/22 03:11:13;;;;;;;;;;;28.00;86.90;;;;;;5066180;28;19916;-52
2021/05/22 03:13:43;;;;;;;;;;;28.00;86.80;;;;;;5067201;28;19904;-54
2021/05/22 03:16:09;;;;;;;;;;;28.00;86.50;;;;;;5067199;28;19913;-56
2021/05/22 03:18:38;;;;;;;;;;;27.90;86.70;;;;;;5066615;28;19909;-52
2021/05/22 03:21:05;;;;;;;;;;;27.90;86.80;;;;;;5048927;28;19988;-54
2021/05/22 03:23:31;;;;;;;;;;;27.90;86.80;;;;;;5048230;28;19983;-56
2021/05/22 03:26:00;;;;;;;;;;;27.90;86.80;;;;;;5078804;28;19924;-60
2021/05/22 03:28:27;;;;;;;;;;;27.90;86.80;;;;;;5086625;28;19968;-57
2021/05/22 03:30:53;;;;;;;;;;;27.90;86.80;;;;;;5086403;28;19908;-57
2021/05/22 03:33:20;;;;;;;;;;;27.90;86.80;;;;;;5086487;28;19911;-57
2021/05/22 03:35:46;;;;;;;;;;;27.90;86.80;;;;;;5086368;28;20124;-61
2021/05/22 03:38:12;;;;;;;;;;;27.80;86.70;;;;;;5086626;28;19904;-54
2021/05/22 03:40:38;;;;;;;;;;;27.90;86.80;;;;;;5086447;28;19904;-54
2021/05/22 03:43:04;;;;;;;;;;;27.80;86.80;;;;;;5086141;28;19918;-56
2021/05/22 03:45:31;;;;;;;;;;;27.80;86.90;;;;;;5086283;28;19992;-54
2021/05/22 03:47:57;;;;;;;;;;;27.80;87.20;;;;;;5086563;28;20185;-54
2021/05/22 03:50:25;;;;;;;;;;;27.70;87.30;;;;;;5086221;28;19908;-55
2021/05/22 03:52:51;;;;;;;;;;;27.70;87.50;;;;;;5086681;28;19908;-55
2021/05/22 03:55:18;;;;;;;;;;;27.70;87.50;;;;;;5085855;28;19936;-56
2021/05/22 03:57:44;;;;;;;;;;;27.70;87.50;;;;;;5086340;28;19909;-56
2021/05/22 04:00:11;;;;;;;;;;;27.70;87.80;;;;;;5079768;28;19950;-57
2021/05/22 04:02:37;;;;;;;;;;;27.70;87.70;;;;;;5066335;28;20239;-57
2021/05/22 04:05:04;;;;;;;;;;;27.80;88.00;;;;;;5066277;28;19905;-56
2021/05/22 04:07:30;;;;;;;;;;;27.70;87.90;;;;;;5066093;28;19975;-55
2021/05/22 04:09:57;;;;;;;;;;;27.70;87.70;;;;;;5064951;28;19905;-51
2021/05/22 04:12:23;;;;;;;;;;;27.70;87.70;;;;;;5065255;28;19916;-55
2021/05/22 04:14:49;;;;;;;;;;;27.70;87.70;;;;;;5065236;28;19905;-52
2021/05/22 04:17:15;;;;;;;;;;;27.70;87.90;;;;;;5065792;28;19980;-51
2021/05/22 04:19:41;;;;;;;;;;;27.70;87.90;;;;;;5065346;28;19905;-57
2021/05/22 04:22:07;;;;;;;;;;;27.70;87.80;;;;;;5065015;28;19912;-62
2021/05/22 04:24:34;;;;;;;;;;;27.70;88.00;;;;;;5065263;28;19939;-61
2021/05/22 04:27:00;;;;;;;;;;;27.70;88.30;;;;;;5065482;28;19919;-52
2021/05/22 04:29:26;;;;;;;;;;;27.60;88.30;;;;;;5064894;28;19905;-55
2021/05/22 04:31:52;;;;;;;;;;;27.70;88.60;;;;;;5065281;28;19948;-59
2021/05/22 04:34:18;;;;;;;;;;;27.60;88.70;;;;;;5065135;28;19936;-55
2021/05/22 04:36:44;;;;;;;;;;;27.60;88.70;;;;;;5065450;28;20189;-57
2021/05/22 04:39:14;;;;;;;;;;;27.70;88.90;;;;;;5065175;28;19905;-53
2021/05/22 04:41:40;;;;;;;;;;;27.60;88.90;;;;;;5047055;28;20120;-55
2021/05/22 04:44:06;;;;;;;;;;;27.60;88.90;;;;;;5064748;28;19916;-54
2021/05/22 04:46:33;;;;;;;;;;;27.60;88.80;;;;;;5064820;28;19912;-53
2021/05/22 04:48:59;;;;;;;;;;;27.60;88.70;;;;;;5064766;28;19905;-55
2021/05/22 04:51:25;;;;;;;;;;;27.60;88.60;;;;;;5046698;28;19928;-50
2021/05/22 04:54:00;;;;;;;;;;;27.70;88.60;;;;;;5064552;28;19912;-51
2021/05/22 04:56:26;;;;;;;;;;;27.60;88.60;;;;;;5064852;28;19913;-50
2021/05/22 04:58:52;;;;;;;;;;;27.70;88.70;;;;;;5047323;28;19904;-54
2021/05/22 05:01:18;;;;;;;;;;;27.70;88.70;;;;;;5065159;28;19944;-52
2021/05/22 05:03:44;;;;;;;;;;;27.70;88.80;;;;;;5064398;28;19905;-54
2021/05/22 05:06:11;;;;;;;;;;;27.70;88.80;;;;;;5064424;28;19917;-55
2021/05/22 05:08:37;;;;;;;;;;;27.70;88.80;;;;;;5064121;28;19909;-54
2021/05/22 05:11:03;;;;;;;;;;;27.60;88.80;;;;;;5064017;28;20101;-58
2021/05/22 05:13:31;;;;;;;;;;;27.60;88.80;;;;;;5064292;28;19905;-54
2021/05/22 05:15:57;;;;;;;;;;;27.60;88.80;;;;;;5030237;28;20521;-48
2021/05/22 05:18:23;;;;;;;;;;;27.70;89.20;;;;;;5064119;28;19912;-52
2021/05/22 05:20:49;;;;;;;;;;;27.60;88.70;;;;;;5064271;28;20185;-57
2021/05/22 05:23:16;;;;;;;;;;;27.60;88.80;;;;;;5064138;28;20211;-53
2021/05/22 05:25:42;;;;;;;;;;;27.60;88.90;;;;;;5064375;28;19911;-55
2021/05/22 05:28:08;;;;;;;;;;;27.60;89.00;;;;;;5064329;28;19905;-53
2021/05/22 05:30:34;;;;;;;;;;;27.60;89.10;;;;;;5064202;28;19905;-52
2021/05/22 05:33:00;;;;;;;;;;;27.60;89.30;;;;;;5064729;28;19913;-59
2021/05/22 05:35:27;;;;;;;;;;;27.60;89.50;;;;;;5063735;28;19966;-52
2021/05/22 05:37:53;;;;;;;;;;;27.60;89.60;;;;;;5064594;28;19916;-53
2021/05/22 05:40:19;;;;;;;;;;;27.60;89.80;;;;;;5073938;28;20117;-55
2021/05/22 05:42:51;;;;;;;;;;;27.60;90.00;;;;;;5082419;28;19923;-50
2021/05/22 05:45:17;;;;;;;;;;;27.60;90.00;;;;;;5084161;28;19904;-51
2021/05/22 05:47:43;;;;;;;;;;;27.60;90.30;;;;;;5084717;28;20219;-50
2021/05/22 05:50:09;;;;;;;;;;;27.60;90.20;;;;;;5084223;28;19910;-55
2021/05/22 05:52:36;;;;;;;;;;;27.60;90.20;;;;;;5084432;28;19920;-56
2021/05/22 05:55:02;;;;;;;;;;;27.60;90.30;;;;;;5083513;28;19904;-53
2021/05/22 05:57:28;;;;;;;;;;;27.60;90.50;;;;;;5084669;28;19912;-56
2021/05/22 05:59:54;;;;;;;;;;;27.60;90.70;;;;;;5084104;28;19904;-59
2021/05/22 06:02:21;;;;;;;;;;;27.50;90.90;;;;;;5084353;28;19982;-56
2021/05/22 06:04:47;;;;;;;;;;;27.50;91.00;;;;;;5066283;28;19939;-56
2021/05/22 06:07:13;;;;;;;;;;;27.50;91.20;;;;;;5084506;28;19972;-56
2021/05/22 06:09:42;;;;;;;;;;;27.50;91.30;;;;;;5066039;28;19904;-57
2021/05/22 06:12:08;;;;;;;;;;;27.50;91.60;;;;;;5084355;28;19916;-56
2021/05/22 06:14:37;;;;;;;;;;;27.50;91.50;;;;;;5084081;28;19908;-56
2021/05/22 06:17:04;;;;;;;;;;;27.50;91.50;;;;;;5084138;28;19912;-58
2021/05/22 06:19:30;;;;;;;;;;;27.50;91.60;;;;;;5084025;28;19904;-57
2021/05/22 06:21:56;;;;;;;;;;;27.40;91.70;;;;;;5084501;28;19920;-55
2021/05/22 06:24:23;;;;;;;;;;;27.50;91.80;;;;;;5083831;28;20151;-53
2021/05/22 06:26:49;;;;;;;;;;;27.40;91.80;;;;;;5084039;28;19919;-53
2021/05/22 06:29:16;;;;;;;;;;;27.40;91.80;;;;;;5083777;28;19905;-56
2021/05/22 06:31:42;;;;;;;;;;;27.40;92.00;;;;;;5083764;28;19917;-61
2021/05/22 06:34:08;;;;;;;;;;;27.40;92.10;;;;;;5083661;28;19904;-62
2021/05/22 06:36:34;;;;;;;;;;;27.40;92.10;;;;;;5084072;28;19920;-62
2021/05/22 06:39:01;;;;;;;;;;;27.30;92.20;;;;;;5083687;28;20192;-62
2021/05/22 06:41:27;;;;;;;;;;;27.30;92.20;;;;;;5083760;28;20189;-62
2021/05/22 06:43:53;;;;;;;;;;;27.30;92.10;;;;;;5083736;28;19950;-61
2021/05/22 06:48:46;;;;;;;;;;;27.30;92.10;;;;;;5087456;28;19904;-63
2021/05/22 06:51:12;;;;;;;;;;;27.30;92.10;;;;;;5087321;28;19924;-61
2021/05/22 06:53:38;;;;;;;;;;;27.30;92.20;;;;;;5087391;28;20207;-62
2021/05/22 06:56:05;;;;;;;;;;;27.20;92.30;;;;;;5087476;28;20177;-62
2021/05/22 06:58:31;;;;;;;;;;;27.20;92.30;;;;;;5087251;28;19904;-57
2021/05/22 07:00:57;;;;;;;;;;;27.20;92.20;;;;;;5087223;28;20253;-62
2021/05/22 07:03:24;;;;;;;;;;;27.20;92.10;;;;;;5087164;28;19973;-60
2021/05/22 07:05:50;;;;;;;;;;;27.20;92.10;;;;;;5087055;28;20181;-61
2021/05/22 07:08:19;;;;;;;;;;;27.20;92.00;;;;;;5087108;28;20268;-53
2021/05/22 07:10:47;;;;;;;;;;;27.20;91.90;;;;;;5086939;28;19916;-59
2021/05/22 07:13:13;;;;;;;;;;;27.20;91.90;;;;;;5086984;28;19904;-59
2021/05/22 07:15:39;;;;;;;;;;;27.20;91.90;;;;;;5068971;28;19915;-56
2021/05/22 07:18:05;;;;;;;;;;;27.20;91.90;;;;;;5086829;28;19908;-57
2021/05/22 07:20:31;;;;;;;;;;;27.20;91.80;;;;;;5087040;28;19904;-60
2021/05/22 07:22:58;;;;;;;;;;;27.20;91.80;;;;;;5087309;28;19913;-60
2021/05/22 07:25:24;;;;;;;;;;;27.20;91.80;;;;;;5086681;28;19908;-58
2021/05/22 07:27:53;;;;;;;;;;;27.20;91.80;;;;;;5086626;28;19915;-56
2021/05/22 07:30:19;;;;;;;;;;;27.10;91.80;;;;;;5086594;28;19908;-59
2021/05/22 07:32:46;;;;;;;;;;;27.10;91.90;;;;;;5086753;28;20061;-58
2021/05/22 07:35:14;;;;;;;;;;;27.10;92.00;;;;;;5086844;28;20159;-57
2021/05/22 07:37:41;;;;;;;;;;;27.10;92.10;;;;;;5087028;28;19937;-57
2021/05/22 07:40:09;;;;;;;;;;;27.10;92.20;;;;;;5086418;28;19912;-59
2021/05/22 07:42:35;;;;;;;;;;;27.00;92.30;;;;;;5086601;28;20327;-54
2021/05/22 07:45:02;;;;;;;;;;;27.00;92.30;;;;;;5086469;28;19916;-56
2021/05/22 07:47:28;;;;;;;;;;;27.00;92.30;;;;;;5086655;28;19913;-58
2021/05/22 07:49:55;;;;;;;;;;;27.00;92.40;;;;;;5086235;28;19904;-55
2021/05/22 07:52:21;;;;;;;;;;;27.00;92.40;;;;;;5086601;28;19955;-55
2021/05/22 07:54:47;;;;;;;;;;;27.00;92.40;;;;;;5086116;28;19905;-59
2021/05/22 07:57:15;;;;;;;;;;;27.00;92.40;;;;;;5085796;28;19912;-59
2021/05/22 07:59:41;;;;;;;;;;;27.00;92.30;;;;;;5086054;28;19904;-60
2021/05/22 08:02:07;;;;;;;;;;;27.00;92.30;;;;;;5086216;28;19912;-61
2021/05/22 08:04:34;;;;;;;;;;;26.90;92.30;;;;;;5086273;28;20186;-58
2021/05/22 08:07:01;;;;;;;;;;;26.90;92.20;;;;;;5086245;28;19919;-59
2021/05/22 08:09:27;;;;;;;;;;;26.90;92.20;;;;;;5085847;28;20204;-58
2021/05/22 08:11:53;;;;;;;;;;;27.00;92.20;;;;;;5085766;28;19937;-58
2021/05/22 08:14:20;;;;;;;;;;;27.00;92.20;;;;;;5085832;28;19904;-57
2021/05/22 08:16:46;;;;;;;;;;;26.90;92.10;;;;;;5085925;28;19979;-59
2021/05/22 08:19:12;;;;;;;;;;;27.00;92.10;;;;;;5085780;28;19919;-58
2021/05/22 08:21:39;;;;;;;;;;;27.00;92.00;;;;;;5085982;28;19913;-57
2021/05/22 08:24:06;;;;;;;;;;;27.00;92.00;;;;;;5085504;28;20147;-60
2021/05/22 08:26:32;;;;;;;;;;;26.90;92.00;;;;;;5085725;28;19921;-57
2021/05/22 08:28:59;;;;;;;;;;;26.90;92.00;;;;;;5085521;28;20078;-57
2021/05/22 08:31:25;;;;;;;;;;;26.90;92.00;;;;;;5085379;28;20070;-58
2021/05/22 08:33:51;;;;;;;;;;;26.90;91.90;;;;;;5085430;28;19912;-57
2021/05/22 08:36:17;;;;;;;;;;;26.90;91.90;;;;;;5085553;28;19913;-58
2021/05/22 08:38:44;;;;;;;;;;;26.90;91.90;;;;;;5085393;28;20298;-59
2021/05/22 08:41:10;;;;;;;;;;;26.90;92.00;;;;;;5085148;28;20120;-58
2021/05/22 08:43:36;;;;;;;;;;;26.80;91.90;;;;;;5085184;28;19958;-60
2021/05/22 08:46:07;;;;;;;;;;;26.80;91.90;;;;;;5085219;28;19912;-59
2021/05/22 08:48:34;;;;;;;;;;;26.80;92.00;;;;;;5084944;28;19905;-58
2021/05/22 08:51:00;;;;;;;;;;;26.80;92.00;;;;;;5085003;28;19920;-58
2021/05/22 08:53:26;;;;;;;;;;;26.80;91.90;;;;;;5085077;28;19912;-59
2021/05/22 08:55:52;;;;;;;;;;;26.80;91.90;;;;;;5084898;28;19943;-59
2021/05/22 08:58:19;;;;;;;;;;;26.80;91.80;;;;;;5084969;28;19905;-57
2021/05/22 09:00:46;;;;;;;;;;;26.80;91.70;;;;;;5084796;28;20151;-57
2021/05/22 09:03:12;;;;;;;;;;;26.80;91.60;;;;;;5084937;28;19912;-56
2021/05/22 09:05:39;;;;;;;;;;;26.80;91.50;;;;;;5084842;28;19977;-58
2021/05/22 09:08:07;;;;;;;;;;;26.80;91.50;;;;;;5084569;28;19927;-57
2021/05/22 09:10:40;;;;;;;;;;;26.80;91.40;;;;;;5084030;28;19913;-57
2021/05/22 09:13:08;;;;;;;;;;;26.80;91.40;;;;;;5084648;28;19965;-57
2021/05/22 09:15:36;;;;;;;;;;;26.80;91.30;;;;;;5084610;28;19942;-55
2021/05/22 09:18:06;;;;;;;;;;;26.80;91.30;;;;;;5084960;28;20127;-58
2021/05/22 09:20:34;;;;;;;;;;;26.80;91.20;;;;;;5084534;28;20114;-56
2021/05/22 09:23:00;;;;;;;;;;;26.80;91.20;;;;;;5085016;28;19913;-60
2021/05/22 09:25:28;;;;;;;;;;;26.80;91.20;;;;;;5084492;28;20108;-55
2021/05/22 09:27:54;;;;;;;;;;;26.80;91.20;;;;;;5084938;28;19912;-55
2021/05/22 09:30:21;;;;;;;;;;;26.80;91.20;;;;;;5084425;28;19912;-55
2021/05/22 09:32:48;;;;;;;;;;;26.80;91.20;;;;;;5084635;28;19916;-56
2021/05/22 09:35:15;;;;;;;;;;;26.80;91.20;;;;;;5084350;28;19912;-55
2021/05/22 09:37:52;;;;;;;;;;;26.80;91.20;;;;;;5084897;28;19912;-56
2021/05/22 09:40:24;;;;;;;;;;;26.80;91.10;;;;;;5084291;28;19904;-59
2021/05/22 09:42:51;;;;;;;;;;;26.80;91.00;;;;;;5084299;28;19921;-57
2021/05/22 09:45:25;;;;;;;;;;;26.80;91.00;;;;;;5084187;28;19976;-58
2021/05/22 09:47:52;;;;;;;;;;;26.80;90.90;;;;;;5084691;28;19957;-55
2021/05/22 09:50:35;;;;;;;;;;;26.80;90.80;;;;;;5084454;28;19964;-56
2021/05/22 09:53:02;;;;;;;;;;;26.80;90.70;;;;;;5084782;28;19922;-55
2021/05/22 09:55:28;;;;;;;;;;;26.80;90.60;;;;;;5084148;28;19951;-54
2021/05/22 09:57:56;;;;;;;;;;;26.80;90.60;;;;;;5083895;28;19909;-55
2021/05/22 10:00:24;;;;;;;;;;;26.80;90.50;;;;;;5084081;28;19915;-56
2021/05/22 10:02:56;;;;;;;;;;;26.70;90.40;;;;;;5084577;28;19954;-55
2021/05/22 10:05:23;;;;;;;;;;;26.70;90.40;;;;;;5083982;28;19967;-57
2021/05/22 10:07:50;;;;;;;;;;;26.70;90.40;;;;;;5084571;28;19908;-56
2021/05/22 10:10:17;;;;;;;;;;;26.70;90.50;;;;;;5084072;28;19908;-57
2021/05/22 10:12:45;;;;;;;;;;;26.70;90.50;;;;;;5084373;28;19963;-58
2021/05/22 10:15:12;;;;;;;;;;;26.70;90.40;;;;;;5083965;28;19915;-57
2021/05/22 10:17:38;;;;;;;;;;;26.70;90.50;;;;;;5084350;28;20074;-57
2021/05/22 10:20:05;;;;;;;;;;;26.70;90.60;;;;;;5084522;28;19909;-57
2021/05/22 10:22:32;;;;;;;;;;;26.70;90.60;;;;;;5088324;28;19930;-56
2021/05/22 10:25:01;;;;;;;;;;;26.70;90.70;;;;;;5087961;28;20104;-56
2021/05/22 10:27:27;;;;;;;;;;;26.70;90.70;;;;;;5088034;28;19908;-61
2021/05/22 10:29:53;;;;;;;;;;;26.70;90.80;;;;;;5087988;28;19908;-57
2021/05/22 10:32:25;;;;;;;;;;;26.70;90.70;;;;;;5088055;28;19920;-58
2021/05/22 10:34:51;;;;;;;;;;;26.70;90.70;;;;;;5087552;28;19915;-57
2021/05/22 10:37:42;;;;;;;;;;;26.70;90.70;;;;;;5087916;28;19939;-55
2021/05/22 10:40:09;;;;;;;;;;;26.70;90.70;;;;;;5087417;28;19949;-57
2021/05/22 10:42:35;;;;;;;;;;;26.70;90.60;;;;;;5087250;28;20106;-59
2021/05/22 10:45:20;;;;;;;;;;;26.70;90.60;;;;;;5087438;28;19950;-57
2021/05/22 10:47:46;;;;;;;;;;;26.60;90.60;;;;;;5087828;28;20096;-59
2021/05/22 10:50:12;;;;;;;;;;;26.60;90.50;;;;;;5087367;28;20219;-60
2021/05/22 10:52:38;;;;;;;;;;;26.60;90.50;;;;;;5087576;28;19966;-55
2021/05/22 10:55:11;;;;;;;;;;;26.60;90.70;;;;;;5087275;28;19904;-57
2021/05/22 10:57:47;;;;;;;;;;;26.60;90.50;;;;;;5087732;28;19913;-55
2021/05/22 11:00:19;;;;;;;;;;;26.60;90.40;;;;;;5087243;28;19913;-61
2021/05/22 11:02:54;;;;;;;;;;;26.70;90.30;;;;;;5087810;28;19913;-57
2021/05/22 11:05:25;;;;;;;;;;;26.70;90.30;;;;;;5069661;28;19905;-57
2021/05/22 11:08:04;;;;;;;;;;;26.60;90.10;;;;;;5087798;28;19916;-52
2021/05/22 11:10:39;;;;;;;;;;;26.70;90.10;;;;;;5086955;28;19905;-55
2021/05/22 11:13:28;;;;;;;;;;;26.70;90.00;;;;;;5087053;28;19940;-54
2021/05/22 11:15:59;;;;;;;;;;;26.70;90.00;;;;;;5086342;28;19905;-54
2021/05/22 11:18:45;;;;;;;;;;;26.70;90.10;;;;;;5086966;28;19905;-57
2021/05/22 11:21:15;;;;;;;;;;;26.70;90.00;;;;;;5058456;28;19975;-56
2021/05/22 11:23:59;;;;;;;;;;;26.70;90.00;;;;;;5086976;28;19911;-58
2021/05/22 11:26:52;;;;;;;;;;;26.80;90.10;;;;;;5068749;28;20140;-56
2021/05/22 11:29:18;;;;;;;;;;;26.80;90.10;;;;;;5086744;28;19912;-57
2021/05/22 11:31:44;;;;;;;;;;;26.80;90.10;;;;;;5085932;28;20132;-55
2021/05/22 11:34:20;;;;;;;;;;;26.80;90.20;;;;;;5086617;28;19967;-55
2021/05/22 11:37:05;;;;;;;;;;;26.80;90.30;;;;;;5068644;28;19958;-60
2021/05/22 11:39:44;;;;;;;;;;;26.80;90.30;;;;;;5086590;28;19904;-56
2021/05/22 11:42:28;;;;;;;;;;;26.80;90.40;;;;;;5086388;28;19940;-54
2021/05/22 11:44:56;;;;;;;;;;;26.80;90.50;;;;;;5086539;28;20078;-59
2021/05/22 11:47:22;;;;;;;;;;;26.80;90.50;;;;;;5086649;28;19935;-54
2021/05/22 11:49:48;;;;;;;;;;;26.80;90.50;;;;;;5086426;28;19905;-55
2021/05/22 11:52:30;;;;;;;;;;;26.80;90.60;;;;;;5086526;28;19959;-57
2021/05/22 11:54:57;;;;;;;;;;;26.90;90.60;;;;;;5086307;28;19911;-57
2021/05/22 11:57:23;;;;;;;;;;;26.90;90.60;;;;;;5086411;28;19916;-55
2021/05/22 11:59:50;;;;;;;;;;;26.90;90.60;;;;;;5086122;28;20215;-56
2021/05/22 12:02:35;;;;;;;;;;;26.90;90.70;;;;;;5086338;28;19912;-53
2021/05/22 12:05:01;;;;;;;;;;;26.90;90.70;;;;;;5086057;28;19984;-62
2021/05/22 12:07:27;;;;;;;;;;;26.90;90.80;;;;;;5086243;28;19943;-57
2021/05/22 12:09:53;;;;;;;;;;;26.90;90.80;;;;;;5085886;28;19927;-55
2021/05/22 12:12:28;;;;;;;;;;;26.90;90.90;;;;;;5086150;28;20154;-55
2021/05/22 12:14:54;;;;;;;;;;;26.90;91.00;;;;;;5085744;28;19904;-60
2021/05/22 12:17:20;;;;;;;;;;;26.90;91.00;;;;;;5086081;28;19912;-56
2021/05/22 12:19:49;;;;;;;;;;;26.90;91.00;;;;;;5085777;28;19911;-56
2021/05/22 12:22:16;;;;;;;;;;;27.00;91.10;;;;;;5085878;28;19912;-55
2021/05/22 12:24:44;;;;;;;;;;;27.00;91.10;;;;;;5085779;28;19905;-54
2021/05/22 12:27:14;;;;;;;;;;;27.00;91.10;;;;;;5085528;28;19983;-54
2021/05/22 12:29:41;;;;;;;;;;;27.00;91.00;;;;;;5085517;28;19912;-55
2021/05/22 12:32:07;;;;;;;;;;;27.00;91.00;;;;;;5085605;28;20242;-59
2021/05/22 12:34:33;;;;;;;;;;;27.00;91.00;;;;;;5067481;28;19912;-55
2021/05/22 12:37:10;;;;;;;;;;;27.00;91.00;;;;;;5085480;28;20101;-54
2021/05/22 12:39:41;;;;;;;;;;;27.10;91.10;;;;;;5085218;28;19905;-55
2021/05/22 12:42:13;;;;;;;;;;;27.10;91.10;;;;;;5085225;28;19912;-54
2021/05/22 12:44:40;;;;;;;;;;;27.10;91.10;;;;;;5085155;28;19910;-60
2021/05/22 12:47:06;;;;;;;;;;;27.10;91.20;;;;;;5085072;28;19947;-54
2021/05/22 12:49:35;;;;;;;;;;;27.10;91.30;;;;;;5067457;28;20193;-56
2021/05/22 12:52:06;;;;;;;;;;;27.10;91.20;;;;;;5085406;28;19920;-55
2021/05/22 12:54:43;;;;;;;;;;;27.10;91.20;;;;;;5084953;28;20108;-56
2021/05/22 12:57:12;;;;;;;;;;;27.10;91.30;;;;;;5085481;28;19940;-57
2021/05/22 12:59:42;;;;;;;;;;;27.10;91.30;;;;;;5085432;28;19931;-58
2021/05/22 13:02:16;;;;;;;;;;;27.20;91.40;;;;;;5085407;28;19908;-56
2021/05/22 13:04:43;;;;;;;;;;;27.20;91.30;;;;;;5067172;28;19908;-58
2021/05/22 13:07:10;;;;;;;;;;;27.20;91.50;;;;;;5085036;28;19908;-57
2021/05/22 13:09:56;;;;;;;;;;;27.20;91.50;;;;;;5066862;28;19908;-61
2021/05/22 13:12:22;;;;;;;;;;;27.20;91.50;;;;;;5066786;28;19987;-56
2021/05/22 13:14:49;;;;;;;;;;;27.20;91.70;;;;;;5084600;28;20129;-57
2021/05/22 13:17:16;;;;;;;;;;;27.20;91.70;;;;;;5085167;28;20066;-56
2021/05/22 13:19:47;;;;;;;;;;;27.20;91.70;;;;;;5084643;28;19950;-55
2021/05/22 13:22:24;;;;;;;;;;;27.30;91.60;;;;;;5084831;28;19909;-59
2021/05/22 13:25:12;;;;;;;;;;;27.30;91.70;;;;;;5066977;28;19920;-60
2021/05/22 13:28:17;;;;;;;;;;;27.30;91.80;;;;;;5084852;28;19975;-56
2021/05/22 13:30:45;;;;;;;;;;;27.30;91.80;;;;;;5003276;28;19918;-56
2021/05/22 13:33:12;;;;;;;;;;;27.30;92.00;;;;;;5003407;28;19910;-58
2021/05/22 13:35:39;;;;;;;;;;;27.30;92.10;;;;;;5042948;28;19946;-58
2021/05/22 13:38:06;;;;;;;;;;;27.30;92.10;;;;;;5084296;28;20220;-57
2021/05/22 13:40:37;;;;;;;;;;;27.30;92.10;;;;;;5066783;28;20101;-55
2021/05/22 13:43:06;;;;;;;;;;;27.30;92.00;;;;;;5069808;28;19917;-59
2021/05/22 13:45:32;;;;;;;;;;;27.30;92.10;;;;;;5076100;28;19909;-58
2021/05/22 13:47:58;;;;;;;;;;;27.40;92.10;;;;;;5069275;28;20200;-59
2021/05/22 13:50:24;;;;;;;;;;;27.40;92.20;;;;;;5068779;28;20112;-58
2021/05/22 13:52:51;;;;;;;;;;;27.40;92.20;;;;;;5044197;28;20217;-57
2021/05/22 13:55:19;;;;;;;;;;;27.40;92.20;;;;;;5047316;28;19976;-55
2021/05/22 13:57:46;;;;;;;;;;;27.40;92.10;;;;;;5062674;28;19932;-61
2021/05/22 14:00:14;;;;;;;;;;;27.40;92.20;;;;;;5062308;28;20018;-54
2021/05/22 14:02:40;;;;;;;;;;;27.40;92.20;;;;;;5063127;28;19976;-58
2021/05/22 14:05:07;;;;;;;;;;;27.50;92.20;;;;;;5062696;28;19913;-67
2021/05/22 14:07:33;;;;;;;;;;;27.40;92.20;;;;;;5054116;28;19987;-55
2021/05/22 14:09:59;;;;;;;;;;;27.40;92.50;;;;;;5062116;28;19905;-53
2021/05/22 14:12:26;;;;;;;;;;;27.40;92.50;;;;;;5063173;28;19944;-54
2021/05/22 14:14:52;;;;;;;;;;;27.40;92.40;;;;;;5062797;28;19905;-55
2021/05/22 14:17:18;;;;;;;;;;;27.40;92.40;;;;;;5060923;28;19951;-60
2021/05/22 14:19:44;;;;;;;;;;;27.40;92.60;;;;;;5063322;28;20205;-56
2021/05/22 14:22:10;;;;;;;;;;;27.30;92.60;;;;;;5064173;28;19920;-56
2021/05/22 14:24:37;;;;;;;;;;;27.30;92.60;;;;;;5062784;28;19912;-56